Time;durP1;ratioP1;P1;durP2;ratioP2;P2;SDS_P1;SDS_P2;PMS_P1;PMS_P2;Temp;Humidity;BMP_temperature;BMP_pressure;BME280_temperature;BME280_humidity;BME280_pressure;Samples;Min_cycle;Max_cycle;Signal;HPM_P1;HPM_P2
2023/07/16 00:37:15;;;;;;;18.63;10.82;;;25.80;99.90;;;;;;6071417;23;20056;-93
2023/07/16 05:06:08;;;;;;;20.85;19.10;;;33.10;99.90;;;;;;5893056;23;20046;-95
2023/07/16 05:08:43;;;;;;;21.45;19.58;;;34.00;99.90;;;;;;5010512;28;20080;-94
2023/07/16 07:47:01;;;;;;;24.33;22.80;;;37.50;99.90;;;;;;6097440;23;20906;31
2023/07/16 08:20:23;;;;;;;24.63;23.00;;;37.10;99.90;;;;;;5970177;22;20061;-94
2023/07/16 19:01:37;;;;;;;24.77;22.90;;;30.20;97.40;;;;;;5077031;23;20061;-93
2023/07/16 19:04:04;;;;;;;25.70;23.17;;;30.20;97.70;;;;;;4946771;28;20026;-92
2023/07/16 19:06:34;;;;;;;24.23;22.55;;;30.10;97.90;;;;;;4957749;28;20058;-95
2023/07/16 19:09:41;;;;;;;24.50;22.80;;;30.10;97.90;;;;;;4953833;28;20022;-93
2023/07/16 19:12:08;;;;;;;24.58;22.98;;;30.00;97.70;;;;;;4961721;28;20081;-93
2023/07/16 19:14:38;;;;;;;25.00;23.00;;;30.10;98.40;;;;;;4958105;28;20030;-93
2023/07/16 19:17:27;;;;;;;24.55;22.80;;;30.10;98.60;;;;;;4954911;28;20034;-94
2023/07/16 19:19:56;;;;;;;24.20;22.38;;;30.00;98.80;;;;;;4954283;28;20030;-95
2023/07/16 19:22:26;;;;;;;24.23;22.60;;;29.90;99.00;;;;;;4953594;28;20030;-93
2023/07/16 19:24:53;;;;;;;24.25;22.58;;;29.80;99.20;;;;;;4956829;28;20027;-94
2023/07/16 19:27:19;;;;;;;24.77;22.60;;;29.80;99.10;;;;;;4959458;28;20031;-92
2023/07/16 19:29:46;;;;;;;23.50;22.00;;;29.70;99.20;;;;;;4977253;28;20007;-92
2023/07/16 19:32:12;;;;;;;23.63;21.77;;;29.70;99.50;;;;;;4958297;28;20468;-92
2023/07/16 19:34:39;;;;;;;23.70;21.90;;;29.60;99.40;;;;;;4954213;28;20113;-93
2023/07/16 19:40:30;;;;;;;23.45;21.95;;;29.50;99.90;;;;;;6054872;23;20022;-94
2023/07/16 19:43:03;;;;;;;24.77;22.80;;;29.60;99.90;;;;;;4951516;29;20046;-94
2023/07/16 19:45:30;;;;;;;24.42;22.52;;;29.50;99.90;;;;;;4938443;29;20036;-93
2023/07/16 19:47:56;;;;;;;24.20;22.60;;;29.50;99.90;;;;;;4926102;29;20086;-94
2023/07/16 19:50:23;;;;;;;23.95;22.17;;;29.40;99.90;;;;;;4937217;29;20031;-94
2023/07/16 19:52:50;;;;;;;23.65;22.15;;;29.40;99.90;;;;;;4926882;29;20023;-92
2023/07/16 19:55:16;;;;;;;24.17;22.23;;;29.20;99.90;;;;;;4938772;29;20031;-92
2023/07/16 19:57:43;;;;;;;23.80;22.02;;;29.10;99.90;;;;;;4942481;29;20078;-93
2023/07/16 20:00:53;;;;;;;;;;;;;;;;;;;;;
2023/07/16 20:03:30;;;;;;;23.40;21.90;;;29.10;99.90;;;;;;4942481;29;20031;-93
2023/07/16 20:05:57;;;;;;;23.42;21.67;;;29.10;99.90;;;;;;4926329;29;20035;-95
2023/07/16 20:08:24;;;;;;;23.77;22.05;;;29.00;99.90;;;;;;4926867;29;20024;-93
2023/07/16 20:10:51;;;;;;;24.05;22.13;;;28.90;99.90;;;;;;4939710;29;20038;-94
2023/07/16 20:13:17;;;;;;;22.70;21.15;;;28.90;99.90;;;;;;4944028;29;20024;-93
2023/07/16 20:15:44;;;;;;;22.33;20.83;;;28.90;99.90;;;;;;4937659;29;20023;-93
2023/07/16 20:18:16;;;;;;;22.83;21.27;;;28.80;99.90;;;;;;4937346;29;20611;-93
2023/07/16 20:20:42;;;;;;;22.10;20.70;;;28.80;99.90;;;;;;4928736;29;20019;-93
2023/07/16 20:23:09;;;;;;;21.88;20.38;;;28.70;99.90;;;;;;4932206;29;20027;-94
2023/07/16 20:25:36;;;;;;;20.98;19.58;;;28.60;99.90;;;;;;4934279;28;20057;-94
2023/07/16 20:28:08;;;;;;;20.23;18.83;;;28.50;99.90;;;;;;4935379;29;20031;-94
2023/07/16 20:30:35;;;;;;;20.90;19.23;;;28.50;99.90;;;;;;4936152;29;20027;-91
2023/07/16 20:33:01;;;;;;;20.13;18.92;;;28.50;99.90;;;;;;4936273;29;20019;-92
2023/07/16 20:35:28;;;;;;;20.23;18.80;;;28.50;99.90;;;;;;4951160;29;20038;-93
2023/07/16 20:37:54;;;;;;;21.02;19.25;;;28.40;99.90;;;;;;4919949;29;20043;-92
2023/07/16 20:40:20;;;;;;;20.25;18.52;;;28.40;99.90;;;;;;4950447;29;20086;-93
2023/07/16 20:42:47;;;;;;;19.85;18.60;;;28.40;99.90;;;;;;4936079;29;20138;-92
2023/07/16 20:45:17;;;;;;;19.30;17.90;;;28.40;99.90;;;;;;4935191;29;20030;-94
2023/07/16 20:47:49;;;;;;;19.40;17.70;;;28.40;99.90;;;;;;4951309;29;20473;-94
2023/07/16 20:50:19;;;;;;;17.75;16.45;;;28.30;99.90;;;;;;4935014;28;20078;-93
2023/07/16 20:52:54;;;;;;;18.45;17.15;;;28.10;99.90;;;;;;4934442;29;20484;-93
2023/07/16 20:55:22;;;;;;;19.02;17.30;;;28.10;99.90;;;;;;4935639;29;20031;-92
2023/07/16 20:57:50;;;;;;;18.55;17.30;;;28.00;99.90;;;;;;4956213;28;20011;-94
2023/07/16 21:00:18;;;;;;;18.85;17.38;;;28.00;99.90;;;;;;4943666;29;20043;-94
2023/07/16 21:02:47;;;;;;;18.30;17.10;;;28.10;99.90;;;;;;4947936;29;20023;-94
2023/07/16 21:05:14;;;;;;;18.70;17.40;;;28.00;99.90;;;;;;4923864;29;20400;-93
2023/07/16 21:07:44;;;;;;;19.33;18.00;;;27.90;99.90;;;;;;4923957;29;20027;-92
2023/07/16 21:10:15;;;;;;;18.63;17.33;;;27.90;99.90;;;;;;4925545;29;20031;-94
2023/07/16 21:12:45;;;;;;;18.52;17.23;;;27.90;99.90;;;;;;4939255;29;20031;-93
2023/07/16 21:15:48;;;;;;;18.85;17.38;;;27.90;99.90;;;;;;4924509;29;20039;-94
2023/07/16 21:18:23;;;;;;;18.73;17.35;;;27.90;99.90;;;;;;4926718;29;20103;-95
2023/07/16 21:20:59;;;;;;;18.98;17.50;;;27.90;99.90;;;;;;4956765;28;20075;-94
2023/07/16 21:26:50;;;;;;;20.45;17.70;;;27.80;99.90;;;;;;4947953;29;20095;-94
2023/07/16 21:29:20;;;;;;;18.05;16.80;;;27.70;99.90;;;;;;4960467;28;20041;-93
2023/07/16 21:31:59;;;;;;;18.95;17.23;;;27.50;99.90;;;;;;4927063;29;20031;-95
2023/07/16 21:34:28;;;;;;;18.08;16.85;;;27.50;99.90;;;;;;4930278;29;20042;-93
2023/07/16 21:36:57;;;;;;;18.45;17.15;;;27.50;99.90;;;;;;4926718;28;20027;-95
2023/07/16 21:39:27;;;;;;;18.50;17.17;;;27.60;99.90;;;;;;4929413;29;20110;-94
2023/07/16 21:42:02;;;;;;;18.92;17.20;;;27.60;99.90;;;;;;4937868;29;20424;-94
2023/07/16 21:44:31;;;;;;;19.02;17.60;;;27.70;99.90;;;;;;4926902;29;20028;-94
2023/07/16 21:46:58;;;;;;;19.30;17.58;;;27.60;99.90;;;;;;4926235;29;20054;-94
2023/07/16 21:49:25;;;;;;;18.10;16.85;;;27.60;99.90;;;;;;4924122;29;20119;-95
2023/07/16 21:51:59;;;;;;;19.50;17.80;;;27.50;99.90;;;;;;4924613;29;20039;-93
2023/07/16 21:54:29;;;;;;;20.30;18.50;;;27.40;99.90;;;;;;4924266;29;20023;-94
2023/07/16 21:57:05;;;;;;;19.45;17.95;;;27.20;99.90;;;;;;4926421;29;20034;-94
2023/07/16 21:59:38;;;;;;;21.25;17.75;;;27.10;99.90;;;;;;4927009;29;20035;-93
2023/07/16 22:02:05;;;;;;;19.10;17.38;;;27.10;99.90;;;;;;4924137;29;20409;-94
2023/07/16 22:04:31;;;;;;;18.27;16.98;;;27.10;99.90;;;;;;4924322;29;20434;-92
2023/07/16 22:06:58;;;;;;;18.60;17.30;;;27.10;99.90;;;;;;4923705;29;20103;-94
2023/07/16 22:09:55;;;;;;;18.40;17.00;;;27.00;99.90;;;;;;4929814;29;20024;-95
2023/07/16 22:12:22;;;;;;;19.10;17.80;;;27.00;99.90;;;;;;4868227;29;20078;-93
2023/07/16 22:18:56;;;;;;;19.55;17.95;;;26.80;99.90;;;;;;4925081;29;20142;-93
2023/07/16 22:22:27;;;;;;;19.38;17.92;;;26.80;99.90;;;;;;4916566;29;20044;-94
2023/07/16 22:28:43;;;;;;;19.70;18.17;;;26.70;99.90;;;;;;4747212;30;20151;-93
2023/07/16 22:31:10;;;;;;;20.42;18.75;;;26.70;99.90;;;;;;4730686;30;20036;-94
2023/07/16 22:33:51;;;;;;;19.85;18.25;;;26.70;99.90;;;;;;4732086;30;20412;-92
2023/07/16 22:36:18;;;;;;;20.45;18.88;;;26.60;99.90;;;;;;4744896;30;20048;-93
2023/07/16 22:38:44;;;;;;;20.13;18.45;;;26.60;99.90;;;;;;4742591;30;20036;-92
2023/07/16 22:41:11;;;;;;;19.65;17.90;;;26.70;99.90;;;;;;4745761;30;20071;-93
2023/07/16 22:43:37;;;;;;;20.70;18.95;;;26.70;99.90;;;;;;4741865;30;20040;-92
2023/07/16 22:46:05;;;;;;;20.25;18.60;;;26.70;99.90;;;;;;4749961;30;20060;-92
2023/07/16 22:48:31;;;;;;;20.50;18.90;;;26.70;99.90;;;;;;4740277;30;20039;-92
2023/07/16 22:50:58;;;;;;;20.60;19.08;;;26.70;99.90;;;;;;4751669;30;20040;-92
2023/07/16 22:53:24;;;;;;;20.70;19.17;;;26.70;99.90;;;;;;4744175;30;20036;-93
2023/07/16 22:55:50;;;;;;;20.45;19.00;;;26.70;99.90;;;;;;4745232;30;20068;-92
2023/07/16 22:58:17;;;;;;;21.02;19.15;;;26.50;99.90;;;;;;4747592;30;20116;-94
2023/07/16 23:00:43;;;;;;;20.80;19.35;;;26.50;99.90;;;;;;4777720;29;20031;-92
2023/07/16 23:03:19;;;;;;;21.38;19.88;;;26.50;99.90;;;;;;4822345;29;20042;-94
2023/07/16 23:05:49;;;;;;;21.30;19.40;;;26.50;99.90;;;;;;4962743;28;20129;-93
2023/07/16 23:08:16;;;;;;;21.55;19.95;;;26.50;99.90;;;;;;4983979;28;20027;-92
2023/07/16 23:10:42;;;;;;;21.48;19.52;;;26.50;99.90;;;;;;4983093;28;20031;-93
2023/07/16 23:13:08;;;;;;;20.90;19.25;;;26.60;99.90;;;;;;4995359;28;20042;-92
2023/07/16 23:15:35;;;;;;;30.00;26.27;;;26.50;99.90;;;;;;4974290;28;20083;-94
2023/07/16 23:18:02;;;;;;;23.50;21.45;;;26.50;99.90;;;;;;4960782;28;20147;-92
2023/07/16 23:20:29;;;;;;;22.98;20.98;;;26.30;99.90;;;;;;4965492;28;20081;-92
2023/07/16 23:22:58;;;;;;;22.30;20.48;;;26.20;99.90;;;;;;4986095;28;20056;-93
2023/07/16 23:25:25;;;;;;;22.88;20.60;;;26.20;99.90;;;;;;4969000;28;20030;-93
2023/07/16 23:27:51;;;;;;;21.98;20.38;;;26.20;99.90;;;;;;4965234;28;20082;-93
2023/07/16 23:30:20;;;;;;;22.67;20.73;;;26.20;99.90;;;;;;4970411;28;20023;-93
2023/07/16 23:32:47;;;;;;;22.42;20.25;;;26.00;99.90;;;;;;4966739;28;20019;-93
2023/07/16 23:35:13;;;;;;;22.58;20.55;;;25.90;99.90;;;;;;4965387;28;20027;-93
2023/07/16 23:37:40;;;;;;;22.55;20.70;;;25.80;99.90;;;;;;4967274;28;20403;-94
2023/07/16 23:40:08;;;;;;;22.63;20.67;;;25.80;99.90;;;;;;4963039;28;20039;-93
2023/07/16 23:42:34;;;;;;;22.27;20.67;;;25.70;99.90;;;;;;4966285;28;20039;-93
2023/07/16 23:45:01;;;;;;;22.40;20.70;;;25.60;99.90;;;;;;4965150;28;20054;-94
2023/07/16 23:47:27;;;;;;;23.65;21.63;;;25.60;99.90;;;;;;4960358;28;20055;-94
2023/07/16 23:49:54;;;;;;;23.90;21.90;;;25.60;99.90;;;;;;4968292;28;20030;-94
2023/07/16 23:52:23;;;;;;;23.63;21.83;;;25.60;99.90;;;;;;4963314;28;20039;-93
2023/07/16 23:54:57;;;;;;;25.15;22.67;;;25.50;99.90;;;;;;4967855;28;20034;-96
2023/07/16 23:57:24;;;;;;;25.48;23.17;;;25.40;99.90;;;;;;4964234;28;20027;-93
2023/07/16 23:59:50;;;;;;;26.25;23.27;;;25.30;99.90;;;;;;4970668;28;20065;-92
